Time;durP1;ratioP1;P1;durP2;ratioP2;P2;SDS_P1;SDS_P2;PMS_P1;PMS_P2;Temp;Humidity;BMP_temperature;BMP_pressure;BME280_temperature;BME280_humidity;BME280_pressure;Samples;Min_cycle;Max_cycle;Signal;HPM_P1;HPM_P2
2023/03/06 00:00:55;;;;;;;36.95;21.77;;;;;;;2.00;70.72;97120.75;10224536;28;20179;-52
2023/03/06 00:05:56;;;;;;;36.83;21.42;;;;;;;1.96;71.19;97115.59;10222947;28;20146;-52
2023/03/06 00:10:55;;;;;;;47.55;25.50;;;;;;;1.87;71.27;97117.94;10220762;28;20170;-53
2023/03/06 00:15:59;;;;;;;66.38;36.78;;;;;;;1.74;72.60;97119.38;10219414;28;20489;-52
2023/03/06 00:20:58;;;;;;;76.05;44.35;;;;;;;1.71;72.88;97114.16;10222289;28;20062;-53
2023/03/06 00:25:57;;;;;;;;;;;;;;;1.57;75.01;97112.97;10221575;28;20065;-53
2023/03/06 00:30:55;;;;;;;85.63;46.65;;;;;;;1.40;75.40;97119.38;10221885;28;19946;-52
2023/03/06 00:35:55;;;;;;;84.20;46.70;;;;;;;1.05;75.00;97047.81;10230753;28;20045;-52
2023/03/06 00:40:54;;;;;;;79.15;45.33;;;;;;;1.38;75.52;97119.34;10248497;28;20116;-53
2023/03/06 00:45:52;;;;;;;77.05;45.97;;;;;;;1.21;77.32;97113.81;10249277;28;20032;-52
2023/03/06 00:50:51;;;;;;;70.20;39.78;;;;;;;1.14;77.15;97114.47;10216429;28;20162;-52
2023/03/06 00:55:51;;;;;;;75.57;41.53;;;;;;;1.16;76.41;97111.97;10209250;28;20058;-52
2023/03/06 01:00:50;;;;;;;56.53;32.28;;;;;;;0.85;77.25;97086.50;10208609;28;20057;-52
2023/03/06 01:05:49;;;;;;;54.90;31.35;;;;;;;1.03;77.06;97128.66;10209665;28;20448;-52
2023/03/06 01:10:48;;;;;;;54.50;30.35;;;;;;;1.00;76.75;97128.59;10208029;28;20475;-51
2023/03/06 01:15:47;;;;;;;50.10;28.02;;;;;;;1.01;76.20;97122.66;10208116;28;20397;-52
2023/03/06 01:20:45;;;;;;;57.00;31.83;;;;;;;0.94;75.95;97108.84;10208335;28;20062;-52
2023/03/06 01:25:44;;;;;;;52.28;27.55;;;;;;;0.87;76.71;97128.28;10210350;28;20049;-52
2023/03/06 01:30:43;;;;;;;50.63;28.75;;;;;;;0.77;76.74;97126.28;10206990;28;20042;-52
2023/03/06 01:35:42;;;;;;;49.85;28.02;;;;;;;0.67;76.95;97137.09;10208757;28;20125;-52
2023/03/06 01:40:41;;;;;;;45.13;26.13;;;;;;;0.64;76.86;97137.00;10246942;28;20022;-53
2023/03/06 01:45:40;;;;;;;47.08;26.13;;;;;;;0.62;76.58;97134.41;10246824;28;20747;-52
2023/03/06 01:50:39;;;;;;;48.75;26.27;;;;;;;0.62;76.81;97142.06;10217027;28;20035;-52
2023/03/06 01:55:38;;;;;;;;;;;;;;;0.58;76.93;97141.94;10207189;28;20073;-53
2023/03/06 02:00:37;;;;;;;44.00;23.73;;;;;;;0.51;77.25;97133.22;10206155;28;19953;-53
2023/03/06 02:05:38;;;;;;;45.92;25.90;;;;;;;0.51;77.10;97142.56;10207114;28;20037;-52
2023/03/06 02:10:41;;;;;;;48.95;27.25;;;;;;;0.41;77.42;97151.66;10206002;28;20166;-52
2023/03/06 02:15:40;;;;;;;53.38;28.05;;;;;;;0.40;77.73;97149.91;10204638;28;20070;-52
2023/03/06 02:20:50;;;;;;;53.25;29.35;;;;;;;0.40;77.97;97148.22;10205330;28;20026;-52
2023/03/06 02:25:51;;;;;;;58.20;32.60;;;;;;;0.37;77.81;97153.25;10245393;28;20061;-53
2023/03/06 02:30:52;;;;;;;55.58;31.60;;;;;;;0.37;78.01;97160.03;10245092;28;20137;-52
2023/03/06 02:35:57;;;;;;;63.55;33.95;;;;;;;0.34;77.83;97158.28;10244477;28;20116;-52
2023/03/06 02:40:57;;;;;;;58.63;32.92;;;;;;;0.30;77.52;97165.78;10206032;28;20539;-52
2023/03/06 02:45:56;;;;;;;57.85;32.00;;;;;;;0.22;77.90;97158.78;10204854;28;20070;-52
2023/03/06 02:50:55;;;;;;;55.53;31.05;;;;;;;0.22;78.40;97180.88;10206486;28;20046;-53
2023/03/06 02:55:54;;;;;;;;;;;;;;;0.22;77.97;97176.63;10205001;28;20069;-52
2023/03/06 03:00:53;;;;;;;55.20;31.33;;;;;;;0.10;78.36;97160.06;10204557;28;20024;-52
2023/03/06 03:05:52;;;;;;;58.10;33.13;;;;;;;0.08;78.78;97166.81;10204901;28;20060;-53
2023/03/06 03:10:51;;;;;;;55.00;29.85;;;;;;;0.05;79.14;97173.59;10204280;28;20505;-53
2023/03/06 03:16:06;;;;;;;63.33;33.50;;;;;;;0.03;78.89;97167.56;10203502;28;20043;-52
2023/03/06 03:21:10;;;;;;;54.67;30.95;;;;;;;0.07;79.16;97175.31;10243359;28;20688;-53
2023/03/06 03:26:12;;;;;;;64.10;35.55;;;;;;;0.01;79.26;97183.66;10244254;28;20495;-53
2023/03/06 03:31:11;;;;;;;53.22;29.42;;;;;;;-0.18;80.18;97187.31;10232112;28;20074;-53
2023/03/06 03:36:10;;;;;;;60.40;33.70;;;;;;;-0.30;79.63;97182.66;10247099;28;21994;-53
2023/03/06 03:41:09;;;;;;;48.35;26.77;;;;;;;-0.28;80.03;97200.56;10211788;28;20752;-52
2023/03/06 03:46:08;;;;;;;57.83;32.17;;;;;;;-0.37;79.76;97203.66;10213774;28;20033;-53
2023/03/06 03:51:10;;;;;;;46.92;25.30;;;;;;;-0.45;80.02;97207.66;10210686;28;20058;-52
2023/03/06 03:56:10;;;;;;;54.75;28.92;;;;;;;-0.46;80.32;97200.81;10210725;28;20101;-52
2023/03/06 04:01:09;;;;;;;49.40;25.98;;;;;;;-0.53;80.75;97203.97;10248998;28;20449;-52
2023/03/06 04:06:09;;;;;;;41.60;23.10;;;;;;;-0.48;80.61;97208.44;10250961;28;20062;-53
2023/03/06 04:11:08;;;;;;;49.00;26.02;;;;;;;-0.45;81.13;97210.22;10250575;28;20088;-52
2023/03/06 04:16:07;;;;;;;42.53;23.60;;;;;;;-0.40;80.65;97206.97;10250242;28;20061;-53
2023/03/06 04:21:06;;;;;;;46.38;24.70;;;;;;;-0.38;80.81;97223.19;10210235;28;20051;-53
2023/03/06 04:26:05;;;;;;;50.90;27.27;;;;;;;-0.83;80.63;97129.13;10210363;28;20034;-53
2023/03/06 04:31:04;;;;;;;;;;;;;;;-0.30;80.60;97213.25;10249330;28;20058;-52
2023/03/06 04:36:03;;;;;;;54.80;30.65;;;;;;;-0.32;80.35;97214.91;10245257;28;19914;-52
2023/03/06 04:41:02;;;;;;;71.47;40.30;;;;;;;-0.55;81.00;97213.28;10248175;28;20066;-52
2023/03/06 04:46:01;;;;;;;90.78;52.42;;;;;;;-0.56;81.77;97232.78;10248688;28;20026;-52
2023/03/06 04:51:00;;;;;;;96.97;50.10;;;;;;;-0.62;81.81;97240.22;10214643;28;20389;-53
2023/03/06 04:55:59;;;;;;;;;;;;;;;-0.62;81.79;97233.44;10210220;28;20065;-52
2023/03/06 05:00:58;;;;;;;97.93;48.88;;;;;;;-1.02;81.29;97152.25;10208601;28;20004;-52
2023/03/06 05:05:57;;;;;;;93.68;48.72;;;;;;;-0.50;81.37;97239.78;10208765;28;20027;-52
2023/03/06 05:10:59;;;;;;;91.32;47.08;;;;;;;-0.40;81.86;97237.56;10208872;28;20037;-53
2023/03/06 05:16:03;;;;;;;89.70;43.85;;;;;;;-0.25;81.57;97247.44;10208150;28;20089;-52
2023/03/06 05:21:03;;;;;;;78.28;42.85;;;;;;;-0.04;81.72;97246.38;10208322;28;20066;-52
2023/03/06 05:26:12;;;;;;;89.57;48.92;;;;;;;0.09;81.93;97237.44;10207846;28;20144;-52
2023/03/06 05:31:11;;;;;;;;;;;;;;;0.27;81.21;97261.00;10245106;28;20129;-53
2023/03/06 05:36:10;;;;;;;87.95;47.47;;;;;;;0.16;80.85;97216.41;10231520;28;19920;-53
2023/03/06 05:41:13;;;;;;;95.47;51.80;;;;;;;0.64;81.28;97265.53;10214461;28;20477;-53
2023/03/06 05:46:12;;;;;;;89.57;54.45;;;;;;;0.75;80.33;97262.41;10207024;28;20817;-52
2023/03/06 05:51:11;;;;;;;104.65;60.38;;;;;;;0.96;79.81;97272.38;10206733;28;20030;-52
2023/03/06 05:56:10;;;;;;;131.30;75.00;;;;;;;0.90;80.37;97271.41;10205899;28;20421;-52
2023/03/06 06:01:17;;;;;;;89.45;50.28;;;;;;;0.90;80.00;97273.09;10205694;28;20059;-52
2023/03/06 06:06:17;;;;;;;81.80;47.03;;;;;;;1.11;79.26;97280.50;10217308;28;20509;-53
2023/03/06 06:11:17;;;;;;;87.65;47.15;;;;;;;1.36;78.32;97283.72;10213988;28;20054;-52
2023/03/06 06:16:17;;;;;;;80.85;47.78;;;;;;;1.64;78.00;97283.63;10244592;28;20078;-53
2023/03/06 06:21:16;;;;;;;83.13;45.55;;;;;;;1.91;76.79;97291.16;10244688;28;20066;-53
2023/03/06 06:26:15;;;;;;;77.28;44.72;;;;;;;2.02;76.69;97260.75;10219751;28;20062;-53
2023/03/06 06:31:14;;;;;;;77.18;46.90;;;;;;;2.31;75.06;97266.53;10206755;28;20040;-54
2023/03/06 06:36:18;;;;;;;89.75;51.72;;;;;;;2.40;74.84;97281.28;10219044;28;20080;-53
2023/03/06 06:41:17;;;;;;;108.03;54.15;;;;;;;2.20;74.09;97208.25;10218962;28;20072;-54
2023/03/06 06:46:16;;;;;;;71.45;37.70;;;;;;;2.41;74.30;97298.34;10243497;28;20037;-54
2023/03/06 06:51:16;;;;;;;55.30;32.72;;;;;;;2.35;75.05;97298.22;10211194;28;20125;-54
2023/03/06 06:56:15;;;;;;;52.40;31.88;;;;;;;2.52;73.74;97299.47;10205093;28;20876;-53
2023/03/06 07:01:14;;;;;;;60.08;37.25;;;;;;;2.77;74.23;97307.72;10204167;28;20505;-53
2023/03/06 07:06:13;;;;;;;51.70;30.90;;;;;;;2.66;72.13;97225.50;10204207;28;20508;-54
2023/03/06 07:11:16;;;;;;;38.85;24.55;;;;;;;3.06;68.55;97307.50;10202641;28;20105;-55
2023/03/06 07:16:16;;;;;;;34.08;20.42;;;;;;;3.14;68.54;97299.09;10220524;28;20086;-53
2023/03/06 07:21:15;;;;;;;53.28;28.33;;;;;;;3.13;66.37;97310.22;10205415;28;20058;-54
2023/03/06 07:26:14;;;;;;;52.20;28.15;;;;;;;3.38;66.80;97293.63;10200724;28;20464;-54
2023/03/06 07:31:13;;;;;;;43.15;24.98;;;;;;;3.53;65.29;97302.47;10204932;28;20549;-53
2023/03/06 07:36:12;;;;;;;30.60;20.30;;;;;;;3.71;65.54;97301.94;10203526;28;20134;-53
2023/03/06 07:41:12;;;;;;;35.75;22.13;;;;;;;3.83;63.34;97297.91;10198545;28;20050;-52
2023/03/06 07:46:13;;;;;;;31.13;19.30;;;;;;;3.78;64.81;97299.53;10200971;28;20512;-53
2023/03/06 07:51:17;;;;;;;36.78;19.35;;;;;;;3.97;63.92;97294.72;10204959;28;20125;-53
2023/03/06 07:56:16;;;;;;;33.08;21.15;;;;;;;4.14;62.25;97301.00;10199777;28;20125;-53
2023/03/06 08:01:18;;;;;;;31.17;18.92;;;;;;;4.20;61.75;97283.13;10207356;28;20070;-54
2023/03/06 08:06:28;;;;;;;37.15;20.38;;;;;;;4.21;60.52;97278.84;10198437;28;20075;-52
2023/03/06 08:11:29;;;;;;;30.85;19.90;;;;;;;4.05;60.62;97226.38;10205018;28;20121;-54
2023/03/06 08:16:29;;;;;;;35.88;20.65;;;;;;;4.56;59.46;97276.81;10199699;28;20593;-53
2023/03/06 08:21:28;;;;;;;33.30;20.58;;;;;;;4.87;60.68;97283.25;10204540;28;20097;-53
2023/03/06 08:26:29;;;;;;;36.03;22.08;;;;;;;5.20;59.66;97270.88;10206468;28;20133;-53
2023/03/06 08:31:30;;;;;;;35.28;22.50;;;;;;;5.57;58.89;97276.44;10204841;28;20141;-52
2023/03/06 08:36:29;;;;;;;31.65;20.23;;;;;;;5.79;57.32;97278.41;10219245;28;20058;-52
2023/03/06 08:41:29;;;;;;;31.02;20.33;;;;;;;5.64;54.10;97262.78;10212711;28;20050;-52
2023/03/06 08:46:28;;;;;;;33.28;21.02;;;;;;;5.76;55.31;97257.75;10206087;28;20866;-53
2023/03/06 08:51:28;;;;;;;35.70;21.20;;;;;;;5.98;55.10;97244.25;10205877;28;20065;-53
2023/03/06 08:56:32;;;;;;;35.60;22.17;;;;;;;5.92;54.22;97231.31;10204387;28;20066;-53
2023/03/06 09:01:35;;;;;;;37.20;24.48;;;;;;;6.07;54.48;97237.44;10211209;28;20062;-53
2023/03/06 09:06:37;;;;;;;35.33;18.92;;;;;;;6.38;52.20;97234.25;10203196;28;20057;-53
2023/03/06 09:11:37;;;;;;;23.50;14.07;;;;;;;6.56;50.87;97228.38;10210299;28;20118;-53
2023/03/06 09:16:36;;;;;;;25.80;14.52;;;;;;;7.02;50.99;97222.59;10205188;28;20061;-53
2023/03/06 09:21:35;;;;;;;21.38;12.77;;;;;;;7.33;49.35;97214.97;10209348;28;20033;-53
2023/03/06 09:26:34;;;;;;;26.13;15.13;;;;;;;7.25;47.40;97214.94;10206518;28;20500;-53
2023/03/06 09:31:33;;;;;;;23.40;13.77;;;;;;;6.75;48.17;97084.94;10211859;28;20393;-53
2023/03/06 09:36:31;;;;;;;27.40;15.60;;;;;;;7.83;47.93;97201.34;10228678;28;20038;-54
2023/03/06 09:41:34;;;;;;;23.45;14.85;;;;;;;8.22;47.21;97202.19;10218166;28;20026;-54
2023/03/06 09:46:51;;;;;;;24.35;15.30;;;;;;;8.31;47.21;97199.59;10207026;28;20050;-52
2023/03/06 09:52:02;;;;;;;29.05;18.15;;;;;;;8.22;47.83;97194.44;10218937;28;20827;-53
2023/03/06 09:57:01;;;;;;;29.25;16.58;;;;;;;8.51;47.13;97187.50;10216608;28;20149;-54
2023/03/06 10:02:13;;;;;;;;;;;;;;;8.62;47.47;97184.03;10206420;28;20886;-54
2023/03/06 10:07:20;;;;;;;25.70;14.82;;;;;;;8.83;46.94;97168.47;10204780;28;19953;-54
2023/03/06 10:12:23;;;;;;;21.58;12.77;;;;;;;9.01;46.90;97158.91;10210729;28;20134;-54
2023/03/06 10:17:25;;;;;;;23.63;13.23;;;;;;;9.02;46.30;97134.72;10206099;28;20068;-54
2023/03/06 10:23:08;;;;;;;18.95;11.07;;;;;;;9.46;45.75;97150.03;10231473;28;20066;-54
2023/03/06 10:28:17;;;;;;;16.35;10.40;;;;;;;9.69;44.41;97139.53;10213237;28;20152;-53
2023/03/06 10:33:46;;;;;;;15.38;9.77;;;;;;;9.97;43.04;97134.13;10207034;28;20161;-54
2023/03/06 10:38:47;;;;;;;16.10;9.90;;;;;;;10.13;44.05;97124.50;10211940;28;20068;-54
2023/03/06 10:44:07;;;;;;;14.77;9.80;;;;;;;10.23;44.02;97120.06;10219704;28;20151;-54
2023/03/06 10:49:28;;;;;;;18.17;10.70;;;;;;;10.53;41.93;97119.75;10213301;28;20133;-54
2023/03/06 10:54:31;;;;;;;12.93;8.40;;;;;;;10.73;42.04;97100.47;10217048;28;20069;-54
2023/03/06 10:59:30;;;;;;;12.15;8.57;;;;;;;10.79;41.84;97092.63;10225634;28;20074;-54
2023/03/06 11:04:31;;;;;;;13.93;10.00;;;;;;;11.09;43.06;97080.19;10202433;28;20049;-54
2023/03/06 11:09:32;;;;;;;15.13;8.07;;;;;;;11.18;41.90;97020.31;10212362;28;20139;-54
2023/03/06 11:14:30;;;;;;;14.50;8.48;;;;;;;11.76;41.35;97075.66;10202703;28;20078;-54
2023/03/06 11:19:31;;;;;;;13.48;8.20;;;;;;;11.71;38.82;97026.38;10212316;28;20023;-54
2023/03/06 11:24:38;;;;;;;16.02;8.68;;;;;;;12.19;39.50;97060.19;10202715;28;20150;-54
2023/03/06 11:29:46;;;;;;;12.10;7.80;;;;;;;12.33;38.32;97054.75;10210582;28;20114;-54
2023/03/06 11:35:11;;;;;;;14.20;8.77;;;;;;;12.40;37.72;97047.69;10202382;28;20566;-54
2023/03/06 11:40:10;;;;;;;14.45;8.98;;;;;;;12.40;37.89;97042.50;10217396;28;20554;-54
2023/03/06 11:45:23;;;;;;;12.00;7.93;;;;;;;12.46;38.47;97037.16;10202658;28;20622;-55
2023/03/06 11:50:40;;;;;;;15.32;9.15;;;;;;;12.48;38.00;97024.97;10203181;28;20466;-54
2023/03/06 11:56:06;;;;;;;11.60;6.88;;;;;;;12.91;38.44;97003.25;10224220;28;20505;-54
2023/03/06 12:01:23;;;;;;;12.05;7.93;;;;;;;13.05;36.58;96995.97;10219622;28;20066;-54
2023/03/06 12:06:26;;;;;;;10.30;7.28;;;;;;;12.73;36.04;96988.88;10212348;28;20469;-54
2023/03/06 12:11:34;;;;;;;12.07;7.60;;;;;;;12.82;36.37;96978.25;10222055;28;20077;-54
2023/03/06 12:16:58;;;;;;;14.88;9.23;;;;;;;12.89;36.27;96958.16;10219521;28;20085;-54
2023/03/06 12:21:57;;;;;;;11.60;6.60;;;;;;;12.93;35.75;96967.63;10231152;28;20062;-54
2023/03/06 12:27:16;;;;;;;;;;;;;;;13.22;35.48;96953.88;10214002;28;20085;-54
2023/03/06 12:32:31;;;;;;;11.13;7.45;;;;;;;13.65;35.10;96939.78;10222368;28;19922;-54
2023/03/06 12:37:46;;;;;;;14.50;7.38;;;;;;;13.90;33.70;96934.78;10208222;28;20085;-54
2023/03/06 12:43:24;;;;;;;11.75;7.70;;;;;;;14.24;34.35;96930.34;10227095;28;20058;-54
2023/03/06 12:48:30;;;;;;;14.98;8.85;;;;;;;14.19;32.75;96938.31;10207279;28;20062;-54
2023/03/06 12:53:31;;;;;;;13.38;7.57;;;;;;;14.45;33.44;96921.88;10228618;28;20054;-55
2023/03/06 12:58:30;;;;;;;11.07;7.72;;;;;;;14.43;31.96;96922.84;10213013;28;20740;-54
2023/03/06 13:03:29;;;;;;;;;;;;;;;14.53;32.03;96916.47;10216524;28;20776;-54
2023/03/06 13:08:53;;;;;;;13.38;7.18;;;;;;;14.71;31.13;96913.31;10207063;28;19921;-54
2023/03/06 13:13:52;;;;;;;15.90;6.97;;;;;;;15.06;32.70;96902.63;10216024;28;20089;-54
2023/03/06 13:19:01;;;;;;;11.18;7.18;;;;;;;14.99;30.85;96863.66;10207189;28;20536;-54
2023/03/06 13:24:05;;;;;;;12.00;6.40;;;;;;;15.46;31.63;96876.03;10224630;28;20516;-54
2023/03/06 13:29:44;;;;;;;13.63;6.75;;;;;;;15.81;30.59;96889.66;10208936;28;20077;-54
2023/03/06 13:34:45;;;;;;;10.88;6.53;;;;;;;16.24;30.04;96880.25;10218993;28;20234;-54
2023/03/06 13:39:53;;;;;;;12.68;6.70;;;;;;;16.56;29.97;96875.50;10205302;28;20679;-54
2023/03/06 13:44:54;;;;;;;9.85;5.97;;;;;;;16.70;30.02;96873.25;10213649;28;20078;-55
2023/03/06 13:49:53;;;;;;;9.52;6.03;;;;;;;16.76;29.52;96878.22;10229259;28;20125;-55
2023/03/06 13:55:07;;;;;;;13.65;7.43;;;;;;;16.73;29.90;96868.72;10225527;28;20026;-54
2023/03/06 14:00:13;;;;;;;10.68;6.55;;;;;;;16.75;29.97;96862.53;10209189;28;20050;-54
2023/03/06 14:05:17;;;;;;;10.00;6.40;;;;;;;16.76;29.84;96861.66;10221468;28;20528;-54
2023/03/06 14:10:23;;;;;;;13.75;6.82;;;;;;;16.52;29.76;96859.94;10213527;28;20126;-54
2023/03/06 14:15:24;;;;;;;11.68;6.82;;;;;;;16.42;30.30;96869.06;10216385;28;20153;-54
2023/03/06 14:20:41;;;;;;;12.70;6.60;;;;;;;16.28;30.85;96871.38;10220059;28;20158;-54
2023/03/06 14:25:41;;;;;;;13.30;6.50;;;;;;;16.10;31.11;96883.38;10217099;28;20576;-54
2023/03/06 14:30:49;;;;;;;19.02;7.53;;;;;;;15.79;31.29;96873.19;10212508;28;20137;-54
2023/03/06 14:35:51;;;;;;;16.40;7.90;;;;;;;15.22;32.19;96868.13;10224527;28;20133;-60
2023/03/06 14:40:51;;;;;;;16.42;7.32;;;;;;;14.34;33.56;96793.50;10218606;28;20114;-59
2023/03/06 14:45:51;;;;;;;14.48;9.27;;;;;;;14.58;34.45;96891.06;10216840;28;20153;-54
2023/03/06 14:50:55;;;;;;;15.88;8.13;;;;;;;14.41;35.10;96900.25;10226360;28;20129;-56
2023/03/06 14:55:59;;;;;;;15.85;8.23;;;;;;;14.32;34.99;96908.38;10219591;28;20465;-56
2023/03/06 15:01:03;;;;;;;30.73;9.20;;;;;;;14.02;37.14;96915.31;10209618;28;20081;-55
2023/03/06 15:06:04;;;;;;;22.17;8.85;;;;;;;13.66;38.51;96912.00;10204007;28;20069;-55
2023/03/06 15:11:05;;;;;;;13.82;9.45;;;;;;;13.44;38.47;96904.69;10211332;28;20556;-55
2023/03/06 15:16:06;;;;;;;12.73;8.95;;;;;;;13.31;40.07;96903.31;10210698;28;20477;-55
2023/03/06 15:21:17;;;;;;;13.55;8.80;;;;;;;13.14;41.05;96907.19;10202416;28;20066;-55
2023/03/06 15:26:35;;;;;;;22.08;9.90;;;;;;;12.98;42.58;96908.47;10209752;28;20073;-55
2023/03/06 15:31:37;;;;;;;16.60;9.95;;;;;;;12.81;43.57;96921.00;10224501;28;20074;-55
2023/03/06 15:36:37;;;;;;;19.60;12.13;;;;;;;12.81;43.05;96928.81;10220605;28;20077;-56
2023/03/06 15:41:37;;;;;;;17.08;11.75;;;;;;;12.87;42.30;96926.09;10217929;28;20066;-55
2023/03/06 15:46:36;;;;;;;20.10;12.00;;;;;;;12.87;41.75;96892.22;10225816;28;20708;-55
2023/03/06 15:51:35;;;;;;;;;;;;;;;12.93;41.67;96908.56;10210851;28;20034;-55
2023/03/06 15:56:39;;;;;;;18.45;10.63;;;;;;;12.71;41.54;96897.78;10217610;28;19917;-55
2023/03/06 16:01:39;;;;;;;13.27;9.18;;;;;;;12.46;42.42;96900.13;10231485;28;20072;-56
2023/03/06 16:06:38;;;;;;;15.15;9.57;;;;;;;12.24;42.21;96885.81;10218467;28;20489;-53
2023/03/06 16:11:37;;;;;;;;;;;;;;;12.02;42.49;96898.44;10226446;28;20054;-54
2023/03/06 16:16:38;;;;;;;16.98;10.25;;;;;;;11.87;42.49;96891.78;10216810;28;19949;-53
2023/03/06 16:21:37;;;;;;;19.02;11.75;;;;;;;11.83;42.92;96893.59;10225709;28;21460;-53
2023/03/06 16:26:37;;;;;;;15.32;8.73;;;;;;;11.75;42.02;96892.88;10216636;28;20089;-54
2023/03/06 16:31:36;;;;;;;14.55;9.90;;;;;;;11.61;42.63;96898.34;10231522;28;20488;-54
2023/03/06 16:36:35;;;;;;;21.23;10.45;;;;;;;11.59;42.28;96899.25;10216782;28;20564;-54
2023/03/06 16:41:34;;;;;;;13.82;9.02;;;;;;;11.52;42.36;96908.91;10222761;28;20532;-54
2023/03/06 16:46:37;;;;;;;17.80;12.32;;;;;;;11.33;41.84;96886.75;10214270;28;20130;-54
2023/03/06 16:51:39;;;;;;;18.67;11.18;;;;;;;11.46;43.38;96920.28;10215315;28;20577;-54
2023/03/06 16:56:38;;;;;;;16.05;8.35;;;;;;;11.63;43.44;96914.75;10216481;28;20066;-54
2023/03/06 17:01:37;;;;;;;60.03;43.08;;;;;;;11.43;44.52;96903.88;10218683;28;20031;-54
2023/03/06 17:06:37;;;;;;;26.42;16.25;;;;;;;11.64;43.71;96915.59;10214342;28;20078;-55
2023/03/06 17:11:41;;;;;;;22.35;14.57;;;;;;;11.62;44.37;96928.66;10208363;28;20561;-55
2023/03/06 17:16:41;;;;;;;22.25;13.85;;;;;;;11.61;44.30;96936.47;10214556;28;20950;-55
2023/03/06 17:21:41;;;;;;;28.48;16.70;;;;;;;11.57;44.44;96929.59;10222651;28;20074;-55
2023/03/06 17:26:42;;;;;;;42.78;27.02;;;;;;;11.43;44.19;96933.31;10212019;28;20065;-55
2023/03/06 17:31:41;;;;;;;25.48;17.48;;;;;;;11.15;45.35;96934.66;10209874;28;20572;-54
2023/03/06 17:36:40;;;;;;;32.10;20.85;;;;;;;11.01;46.50;96955.66;10213647;28;20505;-54
2023/03/06 17:41:38;;;;;;;29.13;19.67;;;;;;;10.83;46.74;96944.63;10206149;28;20037;-54
2023/03/06 17:46:37;;;;;;;33.50;20.75;;;;;;;10.71;47.10;96952.63;10206917;28;20022;-54
2023/03/06 17:51:37;;;;;;;43.05;27.45;;;;;;;10.52;47.63;96951.13;10216591;28;20444;-54
2023/03/06 17:56:36;;;;;;;25.92;17.25;;;;;;;10.49;48.34;96943.41;10208416;28;20146;-54
2023/03/06 18:01:35;;;;;;;15.00;9.40;;;;;;;10.44;45.97;96934.84;10207622;28;20074;-54
2023/03/06 18:06:34;;;;;;;14.43;6.97;;;;;;;10.46;44.89;96941.72;10206902;28;20029;-54
2023/03/06 18:11:33;;;;;;;10.52;6.30;;;;;;;10.62;44.86;96947.56;10205256;28;20034;-54
2023/03/06 18:16:32;;;;;;;10.75;5.80;;;;;;;10.65;43.94;96941.47;10210656;28;20030;-54
2023/03/06 18:21:31;;;;;;;11.30;5.60;;;;;;;10.72;43.40;96945.69;10214053;28;20495;-54
2023/03/06 18:26:31;;;;;;;10.55;5.60;;;;;;;10.81;42.90;96948.16;10200350;28;20035;-54
2023/03/06 18:31:31;;;;;;;14.43;7.60;;;;;;;10.87;42.48;96948.09;10200203;28;20170;-54
2023/03/06 18:36:32;;;;;;;19.27;10.93;;;;;;;10.90;42.45;96942.84;10208623;28;20857;-54
2023/03/06 18:41:31;;;;;;;21.35;13.55;;;;;;;10.66;42.66;96892.16;10206915;28;20374;-54
2023/03/06 18:46:33;;;;;;;23.83;15.27;;;;;;;10.98;42.55;96953.97;10213305;28;20540;-54
2023/03/06 18:51:33;;;;;;;28.73;15.57;;;;;;;10.88;42.33;96931.63;10215968;28;20125;-55
2023/03/06 18:56:32;;;;;;;27.75;14.68;;;;;;;10.94;43.21;96947.13;10199517;28;20065;-55
2023/03/06 19:01:31;;;;;;;30.08;19.77;;;;;;;10.62;45.30;96957.94;10207211;28;20066;-54
2023/03/06 19:06:30;;;;;;;;;;;;;;;10.37;46.99;96963.44;10203520;28;20064;-54
2023/03/06 19:11:31;;;;;;;64.43;44.78;;;;;;;10.11;48.01;96963.75;10207929;28;20053;-54
2023/03/06 19:16:30;;;;;;;49.25;32.35;;;;;;;10.05;48.28;96960.38;10198788;28;20133;-54
2023/03/06 19:21:29;;;;;;;;;;;;;;;10.04;48.54;96967.31;10200992;28;20062;-54
2023/03/06 19:26:27;;;;;;;43.97;29.33;;;;;;;10.08;48.19;96968.16;10226904;28;19965;-54
2023/03/06 19:31:27;;;;;;;38.90;28.38;;;;;;;10.06;48.31;96957.78;10188038;28;20058;-53
2023/03/06 19:36:29;;;;;;;43.72;28.15;;;;;;;10.01;49.59;96953.53;10199374;28;20516;-54
2023/03/06 19:41:28;;;;;;;43.72;27.42;;;;;;;9.97;49.53;96944.94;10214678;28;20070;-53
2023/03/06 19:46:28;;;;;;;42.58;30.15;;;;;;;10.02;49.31;96950.06;10198783;28;20054;-54
2023/03/06 19:51:27;;;;;;;59.58;39.20;;;;;;;9.96;49.38;96949.25;10207195;28;20129;-54
2023/03/06 19:56:27;;;;;;;60.50;40.17;;;;;;;9.91;49.02;96945.88;10198655;28;20528;-54
2023/03/06 20:01:27;;;;;;;56.90;37.42;;;;;;;9.90;49.22;96951.06;10198014;28;20328;-54
2023/03/06 20:06:28;;;;;;;57.40;36.72;;;;;;;9.63;49.36;96905.56;10204953;28;20573;-54
2023/03/06 20:11:31;;;;;;;55.40;35.50;;;;;;;9.81;49.69;96952.00;10217042;28;20070;-54
2023/03/06 20:16:31;;;;;;;54.40;36.78;;;;;;;9.72;50.39;96947.81;10203375;28;20074;-54
2023/03/06 20:21:34;;;;;;;52.17;31.85;;;;;;;9.63;50.54;96940.13;10213978;28;20066;-54
2023/03/06 20:26:35;;;;;;;39.40;26.55;;;;;;;9.43;50.48;96914.41;10206793;28;20517;-54
2023/03/06 20:31:35;;;;;;;35.30;18.48;;;;;;;9.33;49.57;96924.00;10212651;28;20074;-54
2023/03/06 20:36:39;;;;;;;22.23;11.65;;;;;;;9.28;49.00;96912.84;10207064;28;20130;-54
2023/03/06 20:41:39;;;;;;;17.20;9.00;;;;;;;9.24;48.89;96910.28;10212623;28;20544;-53
2023/03/06 20:46:37;;;;;;;13.30;7.78;;;;;;;9.25;48.90;96909.38;10204581;28;20831;-53
2023/03/06 20:51:38;;;;;;;10.52;6.85;;;;;;;9.32;48.40;96895.53;10211980;28;20408;-54
2023/03/06 20:56:39;;;;;;;12.40;6.55;;;;;;;9.39;47.66;96898.94;10203411;28;20133;-54
2023/03/06 21:01:41;;;;;;;9.30;5.75;;;;;;;9.41;47.49;96885.09;10225422;28;20125;-54
2023/03/06 21:06:44;;;;;;;10.82;6.35;;;;;;;9.50;47.86;96890.19;10206587;28;20129;-54
2023/03/06 21:11:43;;;;;;;12.40;6.68;;;;;;;9.30;47.35;96838.63;10211831;28;20101;-54
2023/03/06 21:16:42;;;;;;;12.20;6.75;;;;;;;9.52;47.34;96885.00;10204017;28;21116;-54
2023/03/06 21:21:41;;;;;;;;;;;;;;;9.57;47.26;96875.44;10213118;28;20515;-54
2023/03/06 21:26:40;;;;;;;12.40;6.55;;;;;;;9.64;47.14;96884.84;10202686;28;20029;-54
2023/03/06 21:31:39;;;;;;;12.02;6.43;;;;;;;9.62;46.63;96881.41;10210298;28;20053;-54
2023/03/06 21:36:38;;;;;;;12.88;7.13;;;;;;;9.67;47.14;96897.75;10208217;28;20122;-54
2023/03/06 21:41:39;;;;;;;10.75;6.80;;;;;;;9.62;46.41;96893.50;10209805;28;20077;-54
2023/03/06 21:46:38;;;;;;;16.98;8.40;;;;;;;9.74;46.79;96898.53;10202031;28;20478;-54
2023/03/06 21:51:37;;;;;;;20.83;12.60;;;;;;;9.53;48.22;96904.81;10221755;28;20859;-54
2023/03/06 21:56:36;;;;;;;19.52;11.88;;;;;;;8.96;49.81;96912.25;10207940;28;20034;-54
2023/03/06 22:01:35;;;;;;;29.27;16.08;;;;;;;8.67;50.27;96921.09;10210542;28;20073;-54
2023/03/06 22:06:34;;;;;;;52.92;27.35;;;;;;;8.34;50.97;96907.50;10201699;28;20039;-53
2023/03/06 22:11:36;;;;;;;44.85;21.80;;;;;;;7.47;51.69;96771.88;10209899;28;20137;-53
2023/03/06 22:16:34;;;;;;;65.13;32.15;;;;;;;8.12;50.97;96903.31;10201390;28;20074;-53
2023/03/06 22:21:33;;;;;;;22.13;11.30;;;;;;;7.86;50.46;96858.63;10209068;28;20030;-54
2023/03/06 22:26:32;;;;;;;42.00;23.92;;;;;;;8.36;50.25;96894.53;10200604;28;20608;-53
2023/03/06 22:31:31;;;;;;;55.75;26.80;;;;;;;8.30;50.32;96882.53;10208501;28;20022;-54
2023/03/06 22:36:30;;;;;;;16.90;10.45;;;;;;;8.01;51.05;96878.41;10208433;28;20430;-54
2023/03/06 22:41:30;;;;;;;60.38;32.28;;;;;;;8.13;50.84;96884.34;10202285;28;20459;-53
2023/03/06 22:46:29;;;;;;;;;;;;;;;8.01;51.98;96901.66;10200778;28;20522;-53
2023/03/06 22:51:28;;;;;;;95.30;52.40;;;;;;;8.00;52.21;96907.66;10207943;28;21011;-53
2023/03/06 22:56:27;;;;;;;;;;;;;;;7.88;52.89;96908.56;10200720;28;20066;-54
2023/03/06 23:01:28;;;;;;;19.83;11.73;;;;;;;7.91;52.88;96912.00;10207841;28;19917;-54
2023/03/06 23:06:31;;;;;;;23.85;13.60;;;;;;;7.61;53.75;96878.53;10211358;28;20077;-54
2023/03/06 23:11:31;;;;;;;19.73;12.18;;;;;;;7.71;53.78;96894.00;10201755;28;20107;-54